Time;durP1;ratioP1;P1;durP2;ratioP2;P2;SDS_P1;SDS_P2;PMS_P1;PMS_P2;Temp;Humidity;BMP_temperature;BMP_pressure;BME280_temperature;BME280_humidity;BME280_pressure;Samples;Min_cycle;Max_cycle;Signal;HPM_P1;HPM_P2
2021/07/15 00:00:26;;;;;;;;;;;23.40;63.10;;;;;;4980305;28;19918;-72
2021/07/15 00:02:51;;;;;;;;;;;23.30;63.00;;;;;;4980655;28;20629;-67
2021/07/15 00:05:17;;;;;;;;;;;23.30;63.00;;;;;;5000662;28;19928;-71
2021/07/15 00:07:42;;;;;;;;;;;23.30;62.70;;;;;;4987411;28;19922;-67
2021/07/15 00:10:11;;;;;;;;;;;23.30;62.30;;;;;;4991405;28;20166;-66
2021/07/15 00:12:36;;;;;;;;;;;23.30;62.10;;;;;;4993515;28;19917;-68
2021/07/15 00:15:03;;;;;;;;;;;23.30;62.10;;;;;;4972640;28;19925;-71
2021/07/15 00:17:29;;;;;;;;;;;23.30;62.30;;;;;;4995504;28;19921;-71
2021/07/15 00:19:54;;;;;;;;;;;23.20;62.50;;;;;;4998777;28;19928;-67
2021/07/15 00:22:19;;;;;;;;;;;23.30;62.70;;;;;;4987169;28;19930;-72
2021/07/15 00:24:45;;;;;;;;;;;23.30;62.70;;;;;;4991417;28;19921;-70
2021/07/15 00:27:10;;;;;;;;;;;23.30;62.70;;;;;;4993050;28;20557;-71
2021/07/15 00:29:36;;;;;;;;;;;23.30;62.70;;;;;;4991069;28;20223;-67
2021/07/15 00:32:01;;;;;;;;;;;23.30;62.90;;;;;;4991116;28;20244;-70
2021/07/15 00:34:27;;;;;;;;;;;23.30;62.90;;;;;;4990533;28;20032;-66
2021/07/15 00:36:52;;;;;;;;;;;23.30;62.90;;;;;;4990002;28;19951;-72
2021/07/15 00:39:18;;;;;;;;;;;23.30;63.10;;;;;;4988785;28;20395;-66
2021/07/15 00:41:43;;;;;;;;;;;23.30;63.00;;;;;;4997467;28;19925;-70
2021/07/15 00:44:08;;;;;;;;;;;23.30;63.00;;;;;;4991576;28;20448;-68
2021/07/15 00:46:34;;;;;;;;;;;23.30;63.00;;;;;;4988932;28;19980;-71
2021/07/15 00:48:59;;;;;;;;;;;23.30;63.10;;;;;;4991829;28;19928;-65
2021/07/15 00:51:25;;;;;;;;;;;23.30;63.00;;;;;;4996698;28;19943;-71
2021/07/15 00:53:50;;;;;;;;;;;23.30;63.10;;;;;;4984344;28;20015;-66
2021/07/15 00:56:16;;;;;;;;;;;23.30;63.10;;;;;;4984564;28;19945;-66
2021/07/15 00:58:41;;;;;;;;;;;23.30;63.10;;;;;;5001034;28;20340;-69
2021/07/15 01:01:08;;;;;;;;;;;23.30;63.10;;;;;;4987224;28;19925;-71
2021/07/15 01:03:34;;;;;;;;;;;23.30;63.20;;;;;;4991170;28;19945;-71
2021/07/15 01:05:59;;;;;;;;;;;23.30;63.20;;;;;;4979203;28;20467;-70
2021/07/15 01:08:25;;;;;;;;;;;23.40;63.40;;;;;;4996695;28;19987;-69
2021/07/15 01:10:54;;;;;;;;;;;23.30;63.20;;;;;;4986151;28;20443;-70
2021/07/15 01:13:33;;;;;;;;;;;23.30;63.40;;;;;;4989526;28;20376;-64
2021/07/15 01:16:13;;;;;;;;;;;23.30;63.20;;;;;;4984942;28;21489;-70
2021/07/15 01:18:44;;;;;;;;;;;23.30;63.20;;;;;;4985906;28;19924;-71
2021/07/15 01:21:16;;;;;;;;;;;23.30;63.20;;;;;;4990520;28;19924;-64
2021/07/15 01:23:49;;;;;;;;;;;23.30;63.20;;;;;;4990572;28;19961;-65
2021/07/15 01:26:20;;;;;;;;;;;23.30;63.20;;;;;;4968282;28;19968;-70
2021/07/15 01:29:04;;;;;;;;;;;23.30;63.30;;;;;;4984982;28;19924;-70
2021/07/15 01:31:30;;;;;;;;;;;23.30;63.30;;;;;;4985462;28;19918;-71
2021/07/15 01:33:55;;;;;;;;;;;23.30;63.30;;;;;;4987540;28;19918;-70
2021/07/15 01:36:22;;;;;;;;;;;23.30;63.30;;;;;;4981959;28;19930;-70
2021/07/15 01:38:55;;;;;;;;;;;23.30;63.30;;;;;;4982920;28;19918;-70
2021/07/15 01:41:21;;;;;;;;;;;23.30;63.40;;;;;;4982459;28;19982;-70
2021/07/15 01:43:48;;;;;;;;;;;23.30;63.30;;;;;;4985707;28;19917;-71
2021/07/15 01:46:13;;;;;;;;;;;23.30;63.40;;;;;;4983873;28;20008;-65
2021/07/15 01:48:39;;;;;;;;;;;23.30;63.40;;;;;;4988826;28;20048;-71
2021/07/15 01:51:05;;;;;;;;;;;23.30;63.40;;;;;;4984875;28;19925;-70
2021/07/15 01:53:30;;;;;;;;;;;23.30;63.40;;;;;;4990455;28;19924;-65
2021/07/15 01:55:55;;;;;;;;;;;23.30;63.40;;;;;;4986958;28;19929;-65
2021/07/15 01:58:21;;;;;;;;;;;23.30;63.30;;;;;;4992424;28;20204;-71
2021/07/15 02:00:46;;;;;;;;;;;23.30;63.40;;;;;;4983395;28;19922;-66
2021/07/15 02:03:12;;;;;;;;;;;23.30;63.40;;;;;;4987847;28;19917;-71
2021/07/15 02:05:38;;;;;;;;;;;23.30;63.40;;;;;;4979857;28;19963;-65
2021/07/15 02:08:04;;;;;;;;;;;23.30;63.40;;;;;;4986474;28;19922;-65
2021/07/15 02:10:29;;;;;;;;;;;23.20;63.30;;;;;;4982566;28;20396;-66
2021/07/15 02:12:55;;;;;;;;;;;23.20;63.40;;;;;;4994196;28;19921;-65
2021/07/15 02:15:21;;;;;;;;;;;23.20;63.40;;;;;;4999354;28;19929;-65
2021/07/15 02:17:47;;;;;;;;;;;23.30;63.50;;;;;;4995517;28;19925;-70
2021/07/15 02:20:13;;;;;;;;;;;23.30;63.40;;;;;;4986605;28;19918;-64
2021/07/15 02:22:39;;;;;;;;;;;23.30;63.40;;;;;;4986460;28;20344;-65
2021/07/15 02:25:05;;;;;;;;;;;23.30;63.40;;;;;;4986022;28;19925;-65
2021/07/15 02:27:30;;;;;;;;;;;23.30;63.40;;;;;;4998932;28;20291;-70
2021/07/15 02:29:56;;;;;;;;;;;23.30;63.40;;;;;;4992015;28;19917;-65
2021/07/15 02:32:21;;;;;;;;;;;23.30;63.40;;;;;;4982206;28;19926;-66
2021/07/15 02:34:46;;;;;;;;;;;23.30;63.40;;;;;;4991035;28;19964;-65
2021/07/15 02:37:12;;;;;;;;;;;23.30;63.40;;;;;;4988230;28;20364;-70
2021/07/15 02:39:38;;;;;;;;;;;23.30;63.50;;;;;;4993700;28;20348;-69
2021/07/15 02:42:03;;;;;;;;;;;23.30;63.50;;;;;;4988702;28;19955;-65
2021/07/15 02:44:29;;;;;;;;;;;23.20;63.60;;;;;;4995758;28;20387;-65
2021/07/15 02:46:54;;;;;;;;;;;23.20;63.60;;;;;;4986400;28;19918;-70
2021/07/15 02:49:20;;;;;;;;;;;23.20;63.60;;;;;;4986136;28;19926;-67
2021/07/15 02:51:45;;;;;;;;;;;23.20;63.60;;;;;;4982886;28;19925;-66
2021/07/15 02:54:10;;;;;;;;;;;23.30;63.60;;;;;;4991069;28;20531;-71
2021/07/15 02:56:54;;;;;;;;;;;23.20;63.50;;;;;;4964622;28;19957;-70
2021/07/15 02:59:34;;;;;;;;;;;23.20;63.50;;;;;;4986856;28;19918;-68
2021/07/15 03:02:07;;;;;;;;;;;23.20;63.60;;;;;;4990116;28;19922;-66
2021/07/15 03:04:37;;;;;;;;;;;23.20;63.50;;;;;;4990565;28;19918;-67
2021/07/15 03:07:02;;;;;;;;;;;23.20;63.60;;;;;;4985409;28;20116;-65
2021/07/15 03:09:29;;;;;;;;;;;23.20;63.60;;;;;;4986227;28;20392;-70
2021/07/15 03:12:00;;;;;;;;;;;23.20;63.60;;;;;;4963688;28;19924;-65
2021/07/15 03:14:26;;;;;;;;;;;23.20;63.50;;;;;;4973236;28;19918;-65
2021/07/15 03:16:52;;;;;;;;;;;23.20;63.60;;;;;;4980550;28;20348;-65
2021/07/15 03:19:17;;;;;;;;;;;23.20;63.60;;;;;;4985451;28;19918;-70
2021/07/15 03:21:42;;;;;;;;;;;23.20;63.60;;;;;;4982783;28;20363;-70
2021/07/15 03:24:09;;;;;;;;;;;23.20;63.60;;;;;;4983415;28;19932;-70
2021/07/15 03:26:34;;;;;;;;;;;23.10;63.60;;;;;;4981960;28;19972;-70
2021/07/15 03:29:00;;;;;;;;;;;23.20;63.60;;;;;;4982371;28;19921;-65
2021/07/15 03:31:25;;;;;;;;;;;23.20;63.50;;;;;;4987446;28;20262;-70
2021/07/15 03:33:52;;;;;;;;;;;23.20;63.60;;;;;;4987846;28;21346;-70
2021/07/15 03:36:18;;;;;;;;;;;23.20;63.60;;;;;;4983050;28;19925;-69
2021/07/15 03:38:43;;;;;;;;;;;23.10;63.60;;;;;;4989039;28;20431;-65
2021/07/15 03:41:09;;;;;;;;;;;23.20;63.60;;;;;;4992225;28;19925;-65
2021/07/15 03:43:35;;;;;;;;;;;23.20;63.60;;;;;;4974509;28;20008;-69
2021/07/15 03:46:01;;;;;;;;;;;23.20;63.70;;;;;;4996905;28;20017;-65
2021/07/15 03:48:27;;;;;;;;;;;23.10;63.60;;;;;;4997577;28;19990;-65
2021/07/15 03:50:57;;;;;;;;;;;23.20;63.70;;;;;;4994628;28;19921;-66
2021/07/15 03:53:22;;;;;;;;;;;23.20;63.60;;;;;;4991810;28;19918;-69
2021/07/15 03:55:48;;;;;;;;;;;23.10;63.60;;;;;;4990812;28;19928;-70
2021/07/15 03:58:13;;;;;;;;;;;23.10;63.60;;;;;;4985492;28;19921;-70
2021/07/15 04:00:41;;;;;;;;;;;23.20;63.80;;;;;;4986026;28;19925;-65
2021/07/15 04:03:07;;;;;;;;;;;23.10;63.60;;;;;;4990230;28;19977;-65
2021/07/15 04:05:32;;;;;;;;;;;23.20;63.70;;;;;;4986674;28;20267;-65
2021/07/15 04:07:58;;;;;;;;;;;23.20;63.70;;;;;;4997092;28;19993;-70
2021/07/15 04:10:24;;;;;;;;;;;23.20;63.80;;;;;;4999295;28;19921;-65
2021/07/15 04:12:50;;;;;;;;;;;23.10;63.70;;;;;;4990647;28;20375;-70
2021/07/15 04:15:16;;;;;;;;;;;23.10;63.60;;;;;;4987057;28;20005;-72
2021/07/15 04:18:03;;;;;;;;;;;23.10;63.70;;;;;;4992105;28;19953;-67
2021/07/15 04:20:28;;;;;;;;;;;23.10;63.70;;;;;;4989430;28;20004;-64
2021/07/15 04:22:54;;;;;;;;;;;23.10;63.70;;;;;;4996395;28;19921;-72
2021/07/15 04:25:20;;;;;;;;;;;23.20;63.90;;;;;;4989796;28;19984;-71
2021/07/15 04:27:46;;;;;;;;;;;23.10;63.80;;;;;;4995444;28;19918;-74
2021/07/15 04:30:12;;;;;;;;;;;23.10;63.60;;;;;;4989614;28;19924;-71
2021/07/15 04:32:48;;;;;;;;;;;23.10;63.40;;;;;;4987449;28;19918;-71
2021/07/15 04:35:14;;;;;;;;;;;23.10;63.30;;;;;;4991096;28;20013;-72
2021/07/15 04:37:40;;;;;;;;;;;23.00;63.20;;;;;;4989771;28;19954;-66
2021/07/15 04:40:09;;;;;;;;;;;23.00;63.20;;;;;;4986654;28;19921;-70
2021/07/15 04:42:34;;;;;;;;;;;23.00;63.10;;;;;;4991146;28;19968;-65
2021/07/15 04:45:00;;;;;;;;;;;23.00;63.40;;;;;;4963901;28;19930;-68
2021/07/15 04:47:25;;;;;;;;;;;23.00;63.60;;;;;;4984067;28;19926;-69
2021/07/15 04:49:51;;;;;;;;;;;23.00;63.70;;;;;;4991330;28;19922;-70
2021/07/15 04:52:16;;;;;;;;;;;23.10;63.80;;;;;;4983266;28;20404;-69
2021/07/15 04:54:41;;;;;;;;;;;23.10;63.90;;;;;;4988788;28;20149;-71
2021/07/15 04:57:09;;;;;;;;;;;23.10;63.90;;;;;;4983788;28;19921;-71
2021/07/15 04:59:34;;;;;;;;;;;23.10;63.90;;;;;;4988178;28;19918;-69
2021/07/15 05:02:00;;;;;;;;;;;23.10;64.00;;;;;;4985340;28;19932;-70
2021/07/15 05:04:26;;;;;;;;;;;23.00;63.20;;;;;;4985852;28;19917;-67
2021/07/15 05:06:52;;;;;;;;;;;23.00;63.10;;;;;;4986589;28;20005;-70
2021/07/15 05:09:17;;;;;;;;;;;23.00;63.10;;;;;;4988086;28;20009;-70
2021/07/15 05:11:42;;;;;;;;;;;23.00;63.20;;;;;;4986983;28;20427;-69
2021/07/15 05:14:08;;;;;;;;;;;22.90;63.20;;;;;;4993402;28;19972;-69
2021/07/15 05:16:33;;;;;;;;;;;22.90;63.40;;;;;;4986106;28;19929;-70
2021/07/15 05:18:59;;;;;;;;;;;22.90;63.50;;;;;;4997414;28;20344;-69
2021/07/15 05:21:24;;;;;;;;;;;22.90;63.90;;;;;;4990366;28;19918;-69
2021/07/15 05:23:50;;;;;;;;;;;22.90;64.60;;;;;;4929968;28;1692473;-71
2021/07/15 05:26:15;;;;;;;;;;;22.90;65.00;;;;;;4994682;28;19924;-72
2021/07/15 05:28:41;;;;;;;;;;;23.00;64.30;;;;;;5002366;28;19917;-74
2021/07/15 05:31:07;;;;;;;;;;;23.00;64.30;;;;;;4990941;28;19946;-72
2021/07/15 05:33:32;;;;;;;;;;;23.00;64.10;;;;;;4993450;28;19914;-68
2021/07/15 05:35:58;;;;;;;;;;;23.00;64.10;;;;;;4989762;28;19917;-70
2021/07/15 05:38:23;;;;;;;;;;;23.00;64.40;;;;;;4992662;28;19914;-72
2021/07/15 05:40:49;;;;;;;;;;;22.90;64.60;;;;;;5006298;28;19956;-73
2021/07/15 05:43:14;;;;;;;;;;;22.90;64.80;;;;;;4990234;28;19925;-72
2021/07/15 05:45:40;;;;;;;;;;;22.80;64.70;;;;;;5007302;28;19924;-71
2021/07/15 05:48:05;;;;;;;;;;;22.80;64.70;;;;;;4995738;28;19949;-71
2021/07/15 05:50:30;;;;;;;;;;;22.70;64.50;;;;;;4987791;28;20010;-71
2021/07/15 05:52:56;;;;;;;;;;;22.70;64.40;;;;;;4991676;28;19913;-73
2021/07/15 05:55:21;;;;;;;;;;;22.70;64.20;;;;;;4988473;28;19914;-73
2021/07/15 05:57:47;;;;;;;;;;;22.60;64.20;;;;;;4998742;28;20004;-72
2021/07/15 06:00:14;;;;;;;;;;;22.70;64.40;;;;;;4988957;28;19920;-72
2021/07/15 06:02:39;;;;;;;;;;;22.70;64.40;;;;;;4997528;28;19917;-72
2021/07/15 06:05:05;;;;;;;;;;;22.70;64.60;;;;;;4996125;28;19964;-71
2021/07/15 06:07:30;;;;;;;;;;;22.70;64.00;;;;;;4992779;28;19914;-74
2021/07/15 06:09:56;;;;;;;;;;;22.70;64.20;;;;;;4998732;28;19945;-73
2021/07/15 06:12:21;;;;;;;;;;;22.70;64.00;;;;;;5001830;28;19925;-73
2021/07/15 06:14:47;;;;;;;;;;;22.70;63.80;;;;;;4998276;28;20434;-67
2021/07/15 06:17:12;;;;;;;;;;;22.70;63.60;;;;;;4993995;28;19918;-72
2021/07/15 06:19:37;;;;;;;;;;;22.60;63.60;;;;;;4993111;28;19914;-72
2021/07/15 06:22:03;;;;;;;;;;;22.60;63.50;;;;;;4998181;28;19928;-72
2021/07/15 06:24:28;;;;;;;;;;;22.70;64.30;;;;;;4998981;28;19922;-69
2021/07/15 06:26:54;;;;;;;;;;;22.70;63.40;;;;;;5001086;28;19921;-74
2021/07/15 06:29:19;;;;;;;;;;;22.70;63.80;;;;;;5000212;28;19980;-71
2021/07/15 06:31:45;;;;;;;;;;;22.70;64.00;;;;;;4979574;28;19913;-78
2021/07/15 06:34:10;;;;;;;;;;;22.80;64.00;;;;;;4993457;28;19914;-76
2021/07/15 06:36:36;;;;;;;;;;;22.80;63.80;;;;;;4995030;28;20676;-73
2021/07/15 06:39:01;;;;;;;;;;;22.80;63.80;;;;;;4987689;28;20468;-72
2021/07/15 06:41:27;;;;;;;;;;;22.80;63.80;;;;;;4994462;28;19918;-68
2021/07/15 06:43:52;;;;;;;;;;;22.80;63.90;;;;;;4990826;28;19922;-70
2021/07/15 06:46:17;;;;;;;;;;;22.80;64.00;;;;;;4984141;28;19914;-68
2021/07/15 06:48:43;;;;;;;;;;;22.80;64.20;;;;;;5003637;28;19976;-69
2021/07/15 06:51:08;;;;;;;;;;;22.80;64.10;;;;;;5001230;28;19949;-68
2021/07/15 06:53:34;;;;;;;;;;;22.80;64.00;;;;;;5000235;28;19936;-67
2021/07/15 06:55:59;;;;;;;;;;;22.80;64.00;;;;;;5002523;28;20354;-70
2021/07/15 06:58:28;;;;;;;;;;;22.80;64.20;;;;;;4993652;28;20004;-66
2021/07/15 07:00:54;;;;;;;;;;;22.80;64.30;;;;;;5004363;28;19979;-70
2021/07/15 07:03:20;;;;;;;;;;;22.90;64.50;;;;;;5005109;28;20377;-68
2021/07/15 07:05:45;;;;;;;;;;;22.80;64.10;;;;;;5002657;28;19981;-69
2021/07/15 07:08:11;;;;;;;;;;;22.80;63.90;;;;;;4994837;28;20451;-69
2021/07/15 07:10:36;;;;;;;;;;;22.80;64.30;;;;;;4992319;28;19917;-70
2021/07/15 07:13:01;;;;;;;;;;;22.80;64.40;;;;;;4999203;28;19921;-69
2021/07/15 07:15:27;;;;;;;;;;;22.80;64.70;;;;;;4993763;28;20616;-70
2021/07/15 07:17:52;;;;;;;;;;;22.80;64.80;;;;;;4992004;28;19917;-71
2021/07/15 07:20:18;;;;;;;;;;;22.80;65.00;;;;;;5004530;28;19920;-70
2021/07/15 07:22:44;;;;;;;;;;;22.80;66.10;;;;;;4996130;28;20331;-67
2021/07/15 07:25:09;;;;;;;;;;;22.80;65.30;;;;;;4991309;28;19985;-72
2021/07/15 07:27:35;;;;;;;;;;;22.80;65.40;;;;;;4988879;28;19913;-66
2021/07/15 07:30:01;;;;;;;;;;;22.90;65.50;;;;;;4985959;28;20579;-70
2021/07/15 07:32:26;;;;;;;;;;;22.90;65.50;;;;;;5002169;28;19949;-66
2021/07/15 07:34:51;;;;;;;;;;;22.90;65.40;;;;;;4990875;28;20336;-68
2021/07/15 07:37:17;;;;;;;;;;;22.80;65.30;;;;;;4996430;28;19918;-70
2021/07/15 07:39:42;;;;;;;;;;;22.90;65.30;;;;;;4997106;28;19917;-71
2021/07/15 07:42:08;;;;;;;;;;;22.90;65.30;;;;;;4997045;28;19917;-72
2021/07/15 07:44:33;;;;;;;;;;;22.90;65.20;;;;;;4985599;28;19925;-75
2021/07/15 07:46:59;;;;;;;;;;;22.90;65.10;;;;;;4993598;28;19914;-67
2021/07/15 07:49:24;;;;;;;;;;;22.90;65.10;;;;;;4985195;28;20008;-67
2021/07/15 07:51:50;;;;;;;;;;;22.90;65.10;;;;;;4988834;28;19921;-72
2021/07/15 07:54:15;;;;;;;;;;;22.90;65.20;;;;;;4994426;28;20447;-74
2021/07/15 07:56:40;;;;;;;;;;;22.90;65.20;;;;;;4991260;28;19925;-67
2021/07/15 07:59:06;;;;;;;;;;;22.90;65.00;;;;;;4984906;28;19918;-65
2021/07/15 08:01:33;;;;;;;;;;;22.90;64.80;;;;;;5001282;28;20331;-67
2021/07/15 08:03:58;;;;;;;;;;;22.80;64.70;;;;;;4995017;28;19913;-73
2021/07/15 08:06:23;;;;;;;;;;;22.90;64.80;;;;;;4994275;28;20380;-66
2021/07/15 08:08:50;;;;;;;;;;;22.80;64.10;;;;;;4989573;28;19913;-66
2021/07/15 08:11:16;;;;;;;;;;;22.90;63.80;;;;;;4997416;28;19921;-66
2021/07/15 08:13:41;;;;;;;;;;;22.80;64.00;;;;;;4990236;28;19917;-70
2021/07/15 08:16:07;;;;;;;;;;;22.80;63.70;;;;;;4993068;28;19922;-69
2021/07/15 08:18:32;;;;;;;;;;;22.80;63.60;;;;;;4995027;28;19928;-66
2021/07/15 08:20:58;;;;;;;;;;;22.80;63.10;;;;;;5005446;28;19913;-67
2021/07/15 08:23:23;;;;;;;;;;;22.80;63.50;;;;;;5004657;28;20419;-66
2021/07/15 08:25:49;;;;;;;;;;;22.80;63.60;;;;;;4990108;28;19918;-70
2021/07/15 08:28:14;;;;;;;;;;;22.80;63.60;;;;;;4997984;28;19922;-70
2021/07/15 08:30:40;;;;;;;;;;;22.80;63.60;;;;;;4988957;28;19914;-67
2021/07/15 08:33:05;;;;;;;;;;;22.80;63.70;;;;;;4992412;28;20427;-70
2021/07/15 08:35:32;;;;;;;;;;;22.80;63.80;;;;;;5003296;28;20290;-69
2021/07/15 08:37:57;;;;;;;;;;;22.80;63.80;;;;;;5003103;28;20028;-70
2021/07/15 08:40:23;;;;;;;;;;;22.80;63.40;;;;;;4995071;28;20368;-70
2021/07/15 08:42:48;;;;;;;;;;;22.80;63.30;;;;;;4993945;28;20000;-70
2021/07/15 08:45:14;;;;;;;;;;;22.80;62.70;;;;;;4997078;28;19949;-70
2021/07/15 08:47:40;;;;;;;;;;;22.80;63.00;;;;;;5003932;28;19924;-69
2021/07/15 08:50:06;;;;;;;;;;;22.80;63.30;;;;;;4989544;28;19914;-69
2021/07/15 08:52:31;;;;;;;;;;;22.80;63.30;;;;;;4995607;28;19925;-69
2021/07/15 08:55:05;;;;;;;;;;;22.80;63.10;;;;;;5000957;28;19924;-66
2021/07/15 08:57:30;;;;;;;;;;;22.80;63.20;;;;;;4996482;28;19925;-69
2021/07/15 08:59:56;;;;;;;;;;;22.80;63.30;;;;;;5007182;28;19914;-70
2021/07/15 09:02:21;;;;;;;;;;;22.80;63.30;;;;;;4995527;28;19926;-70
2021/07/15 09:04:47;;;;;;;;;;;22.80;62.60;;;;;;4997460;28;19920;-66
2021/07/15 09:07:13;;;;;;;;;;;22.80;62.90;;;;;;5001515;28;19999;-69
2021/07/15 09:09:38;;;;;;;;;;;22.80;62.90;;;;;;5000088;28;19928;-69
2021/07/15 09:12:04;;;;;;;;;;;22.70;62.20;;;;;;4991188;28;20392;-69
2021/07/15 09:14:32;;;;;;;;;;;22.80;62.30;;;;;;4991751;28;20255;-70
2021/07/15 09:16:57;;;;;;;;;;;22.80;62.90;;;;;;4996926;28;19925;-66
2021/07/15 09:19:23;;;;;;;;;;;22.80;62.80;;;;;;5009406;28;19917;-66
2021/07/15 09:21:49;;;;;;;;;;;22.80;62.30;;;;;;5005915;28;20631;-70
2021/07/15 09:24:31;;;;;;;;;;;22.80;61.70;;;;;;4989818;28;19930;-70
2021/07/15 09:26:56;;;;;;;;;;;22.70;60.40;;;;;;4996429;28;19983;-70
2021/07/15 09:29:21;;;;;;;;;;;22.70;59.80;;;;;;4999437;28;20372;-70
2021/07/15 09:31:51;;;;;;;;;;;22.70;60.90;;;;;;4976309;28;19913;-70
2021/07/15 09:34:16;;;;;;;;;;;22.70;61.40;;;;;;4994160;28;19968;-67
2021/07/15 09:36:42;;;;;;;;;;;22.70;61.70;;;;;;4998907;28;19922;-69
2021/07/15 09:39:20;;;;;;;;;;;22.70;61.70;;;;;;4994237;28;19914;-67
2021/07/15 09:42:04;;;;;;;;;;;22.80;62.10;;;;;;4988836;28;19960;-70
2021/07/15 09:44:29;;;;;;;;;;;22.70;62.20;;;;;;5002204;28;19969;-71
2021/07/15 09:46:55;;;;;;;;;;;22.80;62.50;;;;;;4991407;28;20443;-71
2021/07/15 09:49:28;;;;;;;;;;;22.70;62.70;;;;;;4988134;28;19922;-70
2021/07/15 09:51:57;;;;;;;;;;;22.80;63.10;;;;;;4995366;28;20008;-71
2021/07/15 09:54:23;;;;;;;;;;;22.80;63.50;;;;;;4997932;28;20387;-68
2021/07/15 09:56:48;;;;;;;;;;;22.80;63.90;;;;;;4991425;28;19998;-72
2021/07/15 09:59:14;;;;;;;;;;;22.80;64.00;;;;;;4988186;28;19913;-72
2021/07/15 10:01:43;;;;;;;;;;;22.80;64.70;;;;;;4990842;28;19922;-73
2021/07/15 10:04:08;;;;;;;;;;;22.80;65.50;;;;;;5005620;28;19913;-72
2021/07/15 10:06:43;;;;;;;;;;;22.80;66.20;;;;;;5004567;28;20372;-72
2021/07/15 10:09:18;;;;;;;;;;;22.80;66.70;;;;;;4990246;28;19914;-74
2021/07/15 10:11:43;;;;;;;;;;;22.80;66.80;;;;;;4975857;28;20011;-70
2021/07/15 10:14:09;;;;;;;;;;;22.80;66.70;;;;;;4994935;28;20317;-70
2021/07/15 10:16:38;;;;;;;;;;;22.80;66.40;;;;;;4993037;28;19918;-70
2021/07/15 10:19:03;;;;;;;;;;;22.80;64.70;;;;;;4991567;28;19914;-71
2021/07/15 10:21:30;;;;;;;;;;;22.80;65.10;;;;;;4990278;28;19914;-72
2021/07/15 10:23:55;;;;;;;;;;;22.80;65.30;;;;;;4998864;28;20407;-71
2021/07/15 10:26:21;;;;;;;;;;;22.90;63.40;;;;;;4985085;28;19918;-69
2021/07/15 10:28:47;;;;;;;;;;;22.80;63.70;;;;;;4988517;28;20396;-72
2021/07/15 10:31:13;;;;;;;;;;;22.80;63.80;;;;;;5000064;28;19920;-70
2021/07/15 10:33:38;;;;;;;;;;;22.80;64.00;;;;;;4997128;28;20003;-74
2021/07/15 10:36:04;;;;;;;;;;;22.80;63.70;;;;;;5004623;28;19925;-72
2021/07/15 10:38:36;;;;;;;;;;;22.90;63.80;;;;;;5005300;28;19964;-72
2021/07/15 10:41:02;;;;;;;;;;;22.90;63.20;;;;;;4997234;28;19968;-71
2021/07/15 10:43:27;;;;;;;;;;;22.80;63.50;;;;;;5005734;28;19961;-74
2021/07/15 10:45:53;;;;;;;;;;;22.90;64.00;;;;;;4997729;28;20427;-70
2021/07/15 10:48:18;;;;;;;;;;;22.80;63.40;;;;;;4989714;28;19914;-70
2021/07/15 10:50:44;;;;;;;;;;;22.80;63.90;;;;;;4997687;28;19968;-68
2021/07/15 10:53:10;;;;;;;;;;;22.90;63.80;;;;;;4995626;28;20308;-70
2021/07/15 10:55:36;;;;;;;;;;;22.80;62.40;;;;;;4998304;28;19932;-72
2021/07/15 10:58:01;;;;;;;;;;;22.80;61.60;;;;;;4995649;28;19922;-70
2021/07/15 11:00:27;;;;;;;;;;;22.80;63.00;;;;;;4993117;28;19921;-72
2021/07/15 11:03:09;;;;;;;;;;;22.80;63.00;;;;;;5000238;28;19918;-71
2021/07/15 11:05:34;;;;;;;;;;;22.80;62.80;;;;;;4993875;28;19913;-69
2021/07/15 11:08:00;;;;;;;;;;;22.80;62.60;;;;;;4996672;28;19913;-70
2021/07/15 11:10:25;;;;;;;;;;;22.80;62.60;;;;;;4992533;28;19914;-68
2021/07/15 11:12:54;;;;;;;;;;;22.80;62.10;;;;;;4996706;28;20292;-70
2021/07/15 11:15:20;;;;;;;;;;;22.80;60.40;;;;;;4997921;28;19913;-69
2021/07/15 11:17:47;;;;;;;;;;;22.80;60.20;;;;;;4988920;28;19913;-72
2021/07/15 11:20:18;;;;;;;;;;;22.80;60.80;;;;;;4987687;28;19914;-70
2021/07/15 11:22:45;;;;;;;;;;;22.80;61.20;;;;;;4991002;28;19948;-73
2021/07/15 11:25:13;;;;;;;;;;;22.80;61.70;;;;;;5002016;28;19996;-70
2021/07/15 11:27:48;;;;;;;;;;;22.80;61.70;;;;;;4999936;28;19914;-72
2021/07/15 11:30:15;;;;;;;;;;;22.80;61.70;;;;;;4995985;28;20288;-71
2021/07/15 11:32:41;;;;;;;;;;;22.80;61.90;;;;;;4995860;28;19960;-72
2021/07/15 11:35:20;;;;;;;;;;;22.90;62.00;;;;;;4994428;28;19948;-72
2021/07/15 11:37:50;;;;;;;;;;;22.90;61.30;;;;;;4993719;28;20315;-70
2021/07/15 11:40:34;;;;;;;;;;;22.80;61.20;;;;;;4994184;28;20428;-70
2021/07/15 11:43:13;;;;;;;;;;;22.80;61.20;;;;;;4987307;28;19914;-70
2021/07/15 11:45:57;;;;;;;;;;;22.80;61.50;;;;;;4994110;28;19921;-70
2021/07/15 11:48:41;;;;;;;;;;;22.80;61.80;;;;;;5003748;28;19924;-70
2021/07/15 11:51:19;;;;;;;;;;;22.80;62.00;;;;;;5000529;28;20401;-71
2021/07/15 11:54:04;;;;;;;;;;;22.90;61.90;;;;;;4998519;28;19920;-70
2021/07/15 11:56:33;;;;;;;;;;;22.90;61.20;;;;;;5004553;28;20177;-71
2021/07/15 11:58:59;;;;;;;;;;;22.80;61.00;;;;;;5007160;28;20440;-69
2021/07/15 12:01:31;;;;;;;;;;;22.80;61.50;;;;;;5007590;28;20048;-70
2021/07/15 12:03:57;;;;;;;;;;;22.80;61.40;;;;;;5008144;28;19914;-71
2021/07/15 12:06:22;;;;;;;;;;;22.90;60.40;;;;;;5008212;28;19921;-70
2021/07/15 12:08:48;;;;;;;;;;;22.80;61.20;;;;;;5006994;28;20017;-69
2021/07/15 12:11:17;;;;;;;;;;;22.80;61.30;;;;;;5008353;28;19914;-70
2021/07/15 12:13:42;;;;;;;;;;;22.80;62.10;;;;;;5006344;28;19918;-71
2021/07/15 12:16:08;;;;;;;;;;;22.80;61.60;;;;;;5007618;28;19955;-69
2021/07/15 12:18:34;;;;;;;;;;;22.80;60.90;;;;;;5006400;28;19949;-69
2021/07/15 12:21:01;;;;;;;;;;;22.80;60.90;;;;;;5005992;28;19932;-70
2021/07/15 12:23:31;;;;;;;;;;;22.80;60.90;;;;;;5006080;28;19921;-69
2021/07/15 12:25:57;;;;;;;;;;;22.80;60.80;;;;;;5007308;28;20129;-70
2021/07/15 12:28:27;;;;;;;;;;;22.80;60.80;;;;;;5007818;28;20400;-69
2021/07/15 12:30:54;;;;;;;;;;;22.80;60.90;;;;;;4984926;28;20348;-70
2021/07/15 12:33:21;;;;;;;;;;;22.80;61.00;;;;;;4993848;28;19914;-69
2021/07/15 12:35:47;;;;;;;;;;;22.80;61.00;;;;;;5000264;28;20001;-69
2021/07/15 12:38:16;;;;;;;;;;;22.80;61.30;;;;;;4983542;28;19914;-69
2021/07/15 12:40:41;;;;;;;;;;;22.80;61.60;;;;;;4986253;28;20385;-70
2021/07/15 12:43:33;;;;;;;;;;;22.80;60.90;;;;;;5006380;28;19920;-69
2021/07/15 12:46:07;;;;;;;;;;;22.80;61.30;;;;;;4996044;28;19914;-70
2021/07/15 12:48:37;;;;;;;;;;;22.90;61.40;;;;;;4995491;28;20446;-70
2021/07/15 12:51:03;;;;;;;;;;;22.80;61.50;;;;;;4987929;28;20282;-69
2021/07/15 12:53:31;;;;;;;;;;;22.90;61.60;;;;;;4998462;28;19922;-69
2021/07/15 12:55:58;;;;;;;;;;;22.80;61.30;;;;;;4997781;28;20191;-69
2021/07/15 12:58:23;;;;;;;;;;;22.80;61.10;;;;;;4996075;28;20599;-69
2021/07/15 13:00:49;;;;;;;;;;;22.90;61.50;;;;;;4993703;28;19917;-70
2021/07/15 13:03:14;;;;;;;;;;;22.80;61.60;;;;;;4997740;28;20029;-69
2021/07/15 13:05:40;;;;;;;;;;;22.80;61.80;;;;;;4997612;28;19917;-70
2021/07/15 13:08:05;;;;;;;;;;;22.80;61.70;;;;;;5001055;28;20316;-69
2021/07/15 13:16:10;;;;;;;;;;;22.80;62.00;;;;;;4999500;28;19924;-70
2021/07/15 13:18:35;;;;;;;;;;;22.80;62.50;;;;;;5008759;28;19918;-74
2021/07/15 13:21:01;;;;;;;;;;;22.80;62.90;;;;;;5010592;28;19920;-70
2021/07/15 13:23:26;;;;;;;;;;;22.80;63.20;;;;;;5009202;28;19921;-69
2021/07/15 13:25:52;;;;;;;;;;;22.80;63.30;;;;;;5003987;28;20583;-70
2021/07/15 13:28:19;;;;;;;;;;;22.80;63.10;;;;;;5015406;28;19918;-69
2021/07/15 13:30:44;;;;;;;;;;;22.80;63.50;;;;;;5005739;28;19914;-70
2021/07/15 13:33:10;;;;;;;;;;;22.90;63.40;;;;;;5000725;28;19964;-70
2021/07/15 13:35:36;;;;;;;;;;;22.90;63.50;;;;;;5004920;28;19914;-69
2021/07/15 13:38:02;;;;;;;;;;;22.90;63.60;;;;;;5000097;28;19973;-71
2021/07/15 13:40:28;;;;;;;;;;;22.80;63.80;;;;;;4995506;28;19957;-70
2021/07/15 13:43:01;;;;;;;;;;;22.90;64.20;;;;;;4996628;28;19928;-69
2021/07/15 13:45:26;;;;;;;;;;;22.90;64.10;;;;;;4989484;28;20009;-68
2021/07/15 13:47:52;;;;;;;;;;;22.90;64.00;;;;;;4990713;28;19933;-70
2021/07/15 13:50:17;;;;;;;;;;;22.90;64.10;;;;;;4995638;28;19913;-69
2021/07/15 13:52:43;;;;;;;;;;;22.90;64.10;;;;;;5001562;28;20343;-68
2021/07/15 13:55:12;;;;;;;;;;;22.90;64.20;;;;;;4991646;28;19914;-70
2021/07/15 13:57:38;;;;;;;;;;;22.90;64.30;;;;;;4995070;28;19924;-69
2021/07/15 14:00:08;;;;;;;;;;;22.90;64.30;;;;;;4991142;28;19926;-70
2021/07/15 14:02:34;;;;;;;;;;;22.90;64.20;;;;;;4995043;28;19945;-70
2021/07/15 14:05:00;;;;;;;;;;;22.90;64.20;;;;;;5000000;28;19921;-69
2021/07/15 14:07:26;;;;;;;;;;;22.90;64.30;;;;;;4996688;28;19941;-70
2021/07/15 14:09:51;;;;;;;;;;;22.90;64.30;;;;;;4996537;28;19918;-70
2021/07/15 14:12:17;;;;;;;;;;;22.90;64.40;;;;;;4999796;28;19953;-69
2021/07/15 14:14:49;;;;;;;;;;;22.90;64.40;;;;;;4986668;28;19960;-70
2021/07/15 14:17:18;;;;;;;;;;;22.90;64.50;;;;;;4991979;28;19922;-69
2021/07/15 14:19:43;;;;;;;;;;;22.90;64.50;;;;;;4992428;28;20381;-69